Orbital elements of FENGYUN 1C DEB
| Launched | 9 May 1999 |
| Flight ended | – |
| Launch site | Taiyuan Space Center, PRC |
| Owner | People's Republic of China |
| NORAD ID | 31980 |
| Date fetched |
Epoch osculation |
Inc. [°] |
Ecc. | RA asc node [hr] |
Arg Peri. [°] |
Mean anom [°] |
Mean motion [rev/day] |
Abs. mag |
| Date fetched |
Epoch osculation |
Inc. [°] |
Ecc. | RA asc node [hr] |
Arg Peri. [°] |
Mean anom [°] |
Mean motion [rev/day] |
Abs. mag |
| 2026 May 05 17:57 | 2026 May 05 08:08:10 | 97.5909 | 0.04292 | 11.9222 | 104.4214 | 260.4936 | 13.32306 | – |
| 2026 May 04 17:57 | 2026 Apr 29 09:44:51 | 97.5908 | 0.04293 | 11.6284 | 119.5900 | 260.4936 | 13.32306 | – |
| 2026 May 03 17:57 | 2026 Apr 29 09:44:51 | 97.5908 | 0.04293 | 11.6284 | 119.5900 | 260.4936 | 13.32306 | – |
| 2026 May 02 17:57 | 2026 Apr 29 09:44:51 | 97.5908 | 0.04293 | 11.6284 | 119.5900 | 260.4936 | 13.32306 | – |
| 2026 May 01 17:56 | 2026 Apr 29 09:44:51 | 97.5908 | 0.04293 | 11.6284 | 119.5900 | 260.4936 | 13.32306 | – |
| 2026 Apr 30 17:56 | 2026 Apr 29 09:44:51 | 97.5908 | 0.04293 | 11.6284 | 119.5900 | 260.4936 | 13.32306 | – |
| 2026 Apr 29 17:57 | 2026 Apr 21 21:30:22 | 97.5913 | 0.04292 | 11.2563 | 138.8306 | 260.4936 | 13.32306 | – |
| 2026 Apr 28 17:56 | 2026 Apr 21 21:30:22 | 97.5913 | 0.04292 | 11.2563 | 138.8306 | 260.4936 | 13.32306 | – |
| 2026 Apr 27 17:58 | 2026 Apr 21 21:30:22 | 97.5913 | 0.04292 | 11.2563 | 138.8306 | 260.4936 | 13.32306 | – |
| 2026 Apr 26 17:58 | 2026 Apr 21 21:30:22 | 97.5913 | 0.04292 | 11.2563 | 138.8306 | 260.4936 | 13.32306 | – |
| 2026 Apr 25 17:58 | 2026 Apr 21 21:30:22 | 97.5913 | 0.04292 | 11.2563 | 138.8306 | 260.4936 | 13.32306 | – |
| 2026 Apr 24 17:59 | 2026 Apr 21 21:30:22 | 97.5913 | 0.04292 | 11.2563 | 138.8306 | 260.4936 | 13.32306 | – |
| 2026 Apr 23 17:57 | 2026 Apr 18 21:24:31 | 97.5920 | 0.04291 | 11.1076 | 146.4914 | 260.4936 | 13.32306 | – |
| 2026 Apr 22 17:57 | 2026 Apr 18 21:24:31 | 97.5920 | 0.04291 | 11.1076 | 146.4914 | 260.4936 | 13.32306 | – |
| 2026 Apr 21 17:57 | 2026 Apr 18 21:24:31 | 97.5920 | 0.04291 | 11.1076 | 146.4914 | 260.4936 | 13.32306 | – |
| 2026 Apr 20 17:57 | 2026 Apr 18 21:24:31 | 97.5920 | 0.04291 | 11.1076 | 146.4914 | 260.4936 | 13.32306 | – |
| 2026 Apr 19 17:58 | 2026 Apr 18 21:24:31 | 97.5920 | 0.04291 | 11.1076 | 146.4914 | 260.4936 | 13.32306 | – |
| 2026 Apr 18 17:56 | 2026 Apr 11 09:09:49 | 97.5938 | 0.04288 | 10.7356 | 165.6988 | 260.4936 | 13.32306 | – |
| 2026 Apr 16 17:57 | 2026 Apr 11 09:09:49 | 97.5938 | 0.04288 | 10.7356 | 165.6988 | 260.4936 | 13.32306 | – |
| 2026 Apr 14 17:57 | 2026 Apr 11 09:09:49 | 97.5938 | 0.04288 | 10.7356 | 165.6988 | 260.4936 | 13.32306 | – |
| 2026 Apr 13 17:57 | 2026 Apr 11 09:09:49 | 97.5938 | 0.04288 | 10.7356 | 165.6988 | 260.4936 | 13.32306 | – |
| 2026 Apr 12 17:57 | 2026 Apr 05 21:35:01 | 97.5941 | 0.04285 | 10.4640 | 179.7375 | 260.4936 | 13.32306 | – |
| 2026 Apr 11 17:57 | 2026 Apr 05 21:35:01 | 97.5941 | 0.04285 | 10.4640 | 179.7375 | 260.4936 | 13.32306 | – |
| 2026 Apr 10 17:58 | 2026 Apr 05 21:35:01 | 97.5941 | 0.04285 | 10.4640 | 179.7375 | 260.4936 | 13.32306 | – |
| 2026 Apr 09 18:01 | 2026 Apr 05 21:35:01 | 97.5941 | 0.04285 | 10.4640 | 179.7375 | 260.4936 | 13.32306 | – |
| 2026 Apr 08 17:57 | 2026 Apr 05 21:35:01 | 97.5941 | 0.04285 | 10.4640 | 179.7375 | 260.4936 | 13.32306 | – |